Terminal Aerodrome Forecast
Issued by NWS Grand Forks, ND

Home | Current Version | Previous Version | Text Only | Print | Product List | Glossary Off
Versions: 1 2 3 4 5 6 7 8 9 10 11 12 13 14 15 16 17 18

000
FTUS43 KFGF 262000 AAA
TAFFAR
TAF AMD
KFAR 262036Z 2621/2718 35017KT P6SM BKN040
     FM270000 36014KT P6SM SCT040
     FM270600 VRB06KT P6SM SKC=

USA.gov is the U.S. government's official web portal to all federal, state and local government web resources and services.